»·PEaware :: N4131C KIWA-KNYL

N4131C :: KIWA-KNYL

FLIGHT INFORMATION

Flight Status: Arrived
Operator: Privately registered:
United States
More flights under this callsign
Pilot: John M. (9732)
Aircraft: PIPER PA-28 CHEROKEE ARCHER
(PA28)
More flights by this aircraft type
Origin: KIWA Williams Gateway
United States
Destination: KNYL Yuma MCAS/Yuma Intl
United States
More flights between these airports :: More routes between these airports
Route: GBN V66 BZA
File this flight plan on PilotEdge
Remarks:
Altitude:
(Current/Filed)
6,500ft
Speed:
(Current/Filed)
120kts
Departed: 17-Dec-21 08:05 PM
Arrived: 17-Dec-21 09:30 PM
Distance/Time
Traveled:
153nm/1:25
Distance/Time
To Go:
Arrived

Flight Plot

Page will automatically refresh every two minutes.

Flight plan parsing failed; only flown route is shown


Map Options




Map Legend


Flown Route
Filed Route
Departure Airport
Arrival Airport
Navaid (VOR, NDB)
Fix

Horizontal Profiles

Position Reports

Time Latitude Longitude Heading Altitude Ground
Speed
17-Dec-21 19:40 33.311956 -111.669436 134 1348ft 0kts
17-Dec-21 19:41 33.311956 -111.669436 134 1348ft 0kts
17-Dec-21 19:42 33.311956 -111.669436 134 1348ft 0kts
17-Dec-21 19:43 33.311956 -111.669436 134 1348ft 0kts
17-Dec-21 19:44 33.311956 -111.669436 134 1348ft 0kts
17-Dec-21 19:45 33.311956 -111.669436 134 1348ft 0kts
17-Dec-21 19:46 33.311956 -111.669436 134 1348ft 0kts
17-Dec-21 19:47 33.311956 -111.669436 134 1348ft 0kts
17-Dec-21 19:48 33.311956 -111.669436 134 1348ft 0kts
17-Dec-21 19:49 33.311956 -111.669436 134 1348ft 0kts
17-Dec-21 19:50 33.311956 -111.669436 134 1348ft 0kts
17-Dec-21 19:51 33.311956 -111.669436 134 1348ft 0kts
17-Dec-21 19:52 33.311956 -111.669436 134 1348ft 0kts
17-Dec-21 19:53 33.311956 -111.669436 134 1348ft 0kts
17-Dec-21 19:54 33.311696 -111.668729 127 1349ft 9kts
17-Dec-21 19:55 33.310505 -111.666576 134 1353ft 7kts
17-Dec-21 19:56 33.307633 -111.663222 135 1355ft 19kts
17-Dec-21 19:57 33.303755 -111.658697 135 1363ft 14kts
17-Dec-21 19:58 33.300955 -111.655421 135 1367ft 14kts
17-Dec-21 19:59 33.297882 -111.651834 135 1370ft 15kts
17-Dec-21 20:00 33.296768 -111.649820 68 1372ft 0kts
17-Dec-21 20:01 33.296768 -111.649820 68 1372ft 0kts
17-Dec-21 20:02 33.296768 -111.649820 68 1372ft 0kts
17-Dec-21 20:03 33.296770 -111.649812 68 1372ft 0kts
17-Dec-21 20:05 33.304098 -111.657044 314 1462ft 83kts
17-Dec-21 20:06 33.317157 -111.679364 300 2266ft 80kts
17-Dec-21 20:07 33.322471 -111.703483 271 2931ft 79kts
17-Dec-21 20:08 33.308926 -111.728482 236 3474ft 107kts
17-Dec-21 20:09 33.288788 -111.762412 238 3461ft 136kts
17-Dec-21 20:10 33.268500 -111.800890 242 3417ft 136kts
17-Dec-21 20:11 33.248033 -111.838642 240 3428ft 135kts
17-Dec-21 20:12 33.226451 -111.874252 237 3607ft 128kts
17-Dec-21 20:13 33.206312 -111.906989 237 4013ft 120kts
17-Dec-21 20:14 33.186931 -111.938973 237 4385ft 120kts
17-Dec-21 20:15 33.167211 -111.972040 237 4758ft 119kts
17-Dec-21 20:16 33.147093 -112.006355 238 4919ft 132kts
17-Dec-21 20:17 33.126355 -112.042388 238 5138ft 131kts
17-Dec-21 20:18 33.105791 -112.078051 238 5405ft 128kts
17-Dec-21 20:19 33.089264 -112.114679 259 5722ft 122kts
17-Dec-21 20:20 33.086128 -112.154389 279 5996ft 122kts
17-Dec-21 20:21 33.087838 -112.194714 279 6278ft 123kts
17-Dec-21 20:22 33.090224 -112.237360 280 6348ft 135kts
17-Dec-21 20:23 33.093276 -112.282740 280 6350ft 138kts
17-Dec-21 20:24 33.093963 -112.328985 263 6352ft 142kts
17-Dec-21 20:24 33.085780 -112.367460 251 6307ft 148kts
17-Dec-21 20:26 33.064366 -112.420756 248 5964ft 155kts
17-Dec-21 20:27 33.046843 -112.467331 242 5812ft 150kts
17-Dec-21 20:28 33.028047 -112.510087 243 5867ft 144kts
17-Dec-21 20:28 33.012434 -112.545863 244 5866ft 146kts
17-Dec-21 20:29 32.993544 -112.589071 244 5865ft 147kts
17-Dec-21 20:31 32.971510 -112.639431 243 5867ft 147kts
17-Dec-21 20:32 32.954912 -112.683746 258 5865ft 145kts
17-Dec-21 20:32 32.949726 -112.723404 263 5869ft 146kts
17-Dec-21 20:33 32.943290 -112.771157 263 5870ft 146kts
17-Dec-21 20:34 32.936845 -112.819055 264 5868ft 146kts
17-Dec-21 20:36 32.929297 -112.874859 264 5867ft 146kts
17-Dec-21 20:36 32.923882 -112.914922 264 5868ft 147kts
17-Dec-21 20:37 32.917410 -112.962539 264 5869ft 147kts
17-Dec-21 20:38 32.910830 -113.010857 264 5869ft 146kts
17-Dec-21 20:39 32.904396 -113.058143 264 5865ft 146kts
17-Dec-21 20:40 32.897780 -113.106394 263 5865ft 145kts
17-Dec-21 20:41 32.891215 -113.154162 264 5870ft 146kts
17-Dec-21 20:42 32.884629 -113.201894 263 5869ft 146kts
17-Dec-21 20:43 32.878010 -113.249772 263 5871ft 146kts
17-Dec-21 20:44 32.871415 -113.297382 263 5867ft 145kts
17-Dec-21 20:45 32.864799 -113.345037 264 5867ft 145kts
17-Dec-21 20:46 32.858219 -113.392284 264 5867ft 145kts
17-Dec-21 20:47 32.851592 -113.439573 264 5868ft 144kts
17-Dec-21 20:48 32.845008 -113.486539 264 5869ft 144kts
17-Dec-21 20:49 32.838421 -113.533399 264 5867ft 143kts
17-Dec-21 20:50 32.831859 -113.579920 264 5867ft 142kts
17-Dec-21 20:51 32.825294 -113.626426 264 5869ft 142kts
17-Dec-21 20:52 32.818701 -113.672842 264 5870ft 142kts
17-Dec-21 20:53 32.812112 -113.719233 264 5873ft 142kts
17-Dec-21 20:54 32.805534 -113.765327 264 5869ft 141kts
17-Dec-21 20:55 32.798987 -113.811253 264 5868ft 141kts
17-Dec-21 20:56 32.792399 -113.857184 264 5868ft 140kts
17-Dec-21 20:57 32.785820 -113.902959 264 5867ft 140kts
17-Dec-21 20:58 32.779237 -113.948596 264 5868ft 140kts
17-Dec-21 20:59 32.775660 -113.994099 277 5866ft 137kts
17-Dec-21 21:00 32.775170 -114.039489 275 5866ft 137kts
17-Dec-21 21:01 32.774674 -114.084970 275 5867ft 137kts
17-Dec-21 21:02 32.774195 -114.130083 275 5864ft 136kts
17-Dec-21 21:03 32.773684 -114.175260 274 5868ft 137kts
17-Dec-21 21:04 32.773161 -114.220466 274 5859ft 136kts
17-Dec-21 21:05 32.755694 -114.259855 224 5723ft 140kts
17-Dec-21 21:06 32.726116 -114.290332 222 5225ft 140kts
17-Dec-21 21:07 32.696669 -114.319787 222 4792ft 138kts
17-Dec-21 21:08 32.667354 -114.348563 222 4264ft 143kts
17-Dec-21 21:09 32.642198 -114.377922 233 4175ft 120kts
17-Dec-21 21:10 32.618978 -114.405181 228 4140ft 116kts
17-Dec-21 21:11 32.595162 -114.430934 224 4054ft 117kts
17-Dec-21 21:12 32.568625 -114.455918 222 3785ft 123kts
17-Dec-21 21:13 32.541370 -114.480862 222 3532ft 123kts
17-Dec-21 21:14 32.513925 -114.505464 223 3307ft 123kts
17-Dec-21 21:15 32.487030 -114.530106 228 3130ft 118kts
17-Dec-21 21:16 32.468385 -114.558140 279 2964ft 101kts
17-Dec-21 21:17 32.471539 -114.589584 296 2811ft 93kts
17-Dec-21 21:18 32.477984 -114.619322 295 2597ft 92kts
17-Dec-21 21:19 32.483331 -114.649192 294 2409ft 92kts
17-Dec-21 21:20 32.488612 -114.678669 294 2263ft 91kts
17-Dec-21 21:21 32.500905 -114.700696 356 2070ft 78kts
17-Dec-21 21:22 32.521776 -114.691885 15 1856ft 79kts
17-Dec-21 21:23 32.543206 -114.684391 8 1644ft 79kts
17-Dec-21 21:24 32.565164 -114.678825 8 1472ft 82kts
17-Dec-21 21:25 32.586606 -114.673593 8 1280ft 72kts
17-Dec-21 21:26 32.604471 -114.662386 31 1002ft 74kts
17-Dec-21 21:27 32.620871 -114.647318 41 707ft 74kts
17-Dec-21 21:28 32.635521 -114.630872 37 325ft 72kts
17-Dec-21 21:29 32.647941 -114.616865 42 193ft 35kts
17-Dec-21 21:30 32.653420 -114.610488 43 190ft 29kts
17-Dec-21 21:31 32.657606 -114.606393 47 195ft 12kts
17-Dec-21 21:32 32.660863 -114.603873 353 193ft 17kts
17-Dec-21 21:33 32.665743 -114.604776 257 198ft 13kts
17-Dec-21 21:34 32.663353 -114.606804 242 196ft 10kts
17-Dec-21 21:35 32.662681 -114.606959 180 195ft 0kts
17-Dec-21 21:36 32.662681 -114.606959 180 195ft 0kts
17-Dec-21 21:37 32.662681 -114.606959 180 195ft 0kts
17-Dec-21 21:38 32.662681 -114.606959 180 195ft 0kts
17-Dec-21 21:39 32.662681 -114.606959 180 195ft 0kts
17-Dec-21 21:40 32.662681 -114.606959 180 195ft 0kts
17-Dec-21 21:41 32.662681 -114.606959 180 195ft 0kts
17-Dec-21 21:42 32.662681 -114.606959 180 195ft 0kts

Navigation Log

Ident Type
Flight plan parsing failed, navigation log unavailable